createdAt,value
2018-09-14T00:01:01.619Z,4.00
2018-09-14T00:03:29.968Z,5.30
2018-09-14T00:05:58.290Z,5.13
2018-09-14T00:08:26.599Z,4.30
2018-09-14T00:10:54.973Z,4.20
2018-09-14T00:13:22.281Z,3.83
2018-09-14T00:15:50.582Z,4.63
2018-09-14T00:18:18.936Z,4.20
2018-09-14T00:20:47.380Z,4.57
2018-09-14T00:23:15.738Z,4.23
2018-09-14T00:25:44.057Z,3.90
2018-09-14T00:28:12.397Z,4.33
2018-09-14T00:30:40.803Z,4.63
2018-09-14T00:33:09.110Z,3.80
2018-09-14T00:35:37.439Z,4.23
2018-09-14T00:38:05.742Z,4.60
2018-09-14T00:40:34.063Z,3.73
2018-09-14T00:43:02.394Z,5.20
2018-09-14T00:45:30.711Z,4.03
2018-09-14T00:47:59.126Z,3.47
2018-09-14T00:50:27.422Z,3.37
2018-09-14T00:52:55.758Z,4.50
2018-09-14T00:55:24.046Z,4.17
2018-09-14T00:57:52.374Z,3.70
2018-09-14T01:00:21.191Z,4.50
2018-09-14T01:02:49.517Z,3.87
2018-09-14T01:05:17.846Z,3.83
2018-09-14T01:07:46.131Z,4.47
2018-09-14T01:10:14.447Z,3.43
2018-09-14T01:12:42.732Z,4.33
2018-09-14T01:15:10.998Z,3.40
2018-09-14T01:17:39.302Z,3.97
2018-09-14T01:20:07.645Z,3.93
2018-09-14T01:22:35.938Z,3.53
2018-09-14T01:25:04.287Z,3.73
2018-09-14T01:27:32.572Z,3.53
2018-09-14T01:30:00.862Z,6.10
2018-09-14T01:32:29.159Z,3.70
2018-09-14T01:34:57.442Z,7.40
2018-09-14T01:37:25.771Z,3.93
2018-09-14T01:39:54.993Z,3.53
2018-09-14T01:42:23.266Z,3.93
2018-09-14T01:44:51.546Z,3.73
2018-09-14T01:47:19.874Z,3.67
2018-09-14T01:49:48.163Z,4.13
2018-09-14T01:52:16.510Z,3.63
2018-09-14T01:54:44.775Z,3.80
2018-09-14T01:57:13.066Z,4.50
2018-09-14T01:59:41.410Z,3.62
2018-09-14T02:02:09.695Z,3.63
2018-09-14T02:04:38.010Z,3.13
2018-09-14T02:07:06.306Z,3.53
2018-09-14T02:09:34.603Z,3.60
2018-09-14T02:12:02.882Z,3.62
2018-09-14T02:14:31.159Z,3.57
2018-09-14T02:16:59.531Z,4.50
2018-09-14T02:19:28.546Z,5.00
2018-09-14T02:21:56.842Z,3.73
2018-09-14T02:24:25.148Z,3.33
2018-09-14T02:26:53.414Z,3.50
2018-09-14T02:29:21.733Z,3.47
2018-09-14T02:31:50.063Z,2.93
2018-09-14T02:34:18.390Z,3.03
2018-09-14T02:36:46.677Z,3.43
2018-09-14T02:39:14.963Z,3.22
2018-09-14T02:41:43.224Z,2.97
2018-09-14T02:44:11.564Z,2.97
2018-09-14T02:46:39.858Z,3.50
2018-09-14T02:49:08.195Z,3.70
2018-09-14T02:51:36.472Z,3.10
2018-09-14T02:54:04.782Z,2.97
2018-09-14T02:56:33.062Z,3.00
2018-09-14T02:59:01.849Z,3.47
2018-09-14T03:01:30.127Z,2.90
2018-09-14T03:03:58.430Z,2.70
2018-09-14T03:06:26.754Z,3.17
2018-09-14T03:08:55.070Z,3.50
2018-09-14T03:11:23.419Z,3.07
2018-09-14T03:13:51.714Z,3.00
2018-09-14T03:16:20.071Z,3.33
2018-09-14T03:18:48.373Z,3.37
2018-09-14T03:21:16.641Z,2.85
2018-09-14T03:23:45.199Z,2.87
2018-09-14T03:26:13.734Z,2.90
2018-09-14T03:28:42.058Z,2.77
2018-09-14T03:31:10.373Z,2.93
2018-09-14T03:33:38.689Z,3.20
2018-09-14T03:36:07.222Z,2.73
2018-09-14T03:38:35.523Z,3.07
2018-09-14T03:41:03.879Z,2.93
2018-09-14T03:43:32.197Z,3.90
2018-09-14T03:46:00.487Z,2.50
2018-09-14T03:48:28.783Z,2.90
2018-09-14T03:50:57.059Z,3.10
2018-09-14T03:53:25.427Z,2.73
2018-09-14T03:55:53.702Z,3.40
2018-09-14T03:58:21.986Z,3.20
2018-09-14T04:00:50.261Z,3.62
2018-09-14T04:03:19.173Z,2.80
2018-09-14T04:05:47.566Z,4.60
2018-09-14T04:08:15.874Z,2.60
2018-09-14T04:10:44.158Z,2.53
2018-09-14T04:13:12.510Z,3.55
2018-09-14T04:15:40.794Z,2.20
2018-09-14T04:18:09.062Z,2.83
2018-09-14T04:20:37.395Z,3.23
2018-09-14T04:23:05.708Z,2.20
2018-09-14T04:25:33.994Z,3.20
2018-09-14T04:28:02.261Z,2.57
2018-09-14T04:30:30.638Z,3.40
2018-09-14T04:32:58.966Z,3.17
2018-09-14T04:35:27.282Z,4.47
2018-09-14T04:37:55.668Z,3.87
2018-09-14T04:40:23.935Z,2.93
2018-09-14T04:42:52.294Z,5.70
2018-09-14T04:45:20.574Z,3.13
2018-09-14T04:47:48.886Z,2.70
2018-09-14T04:50:17.250Z,3.12
2018-09-14T04:52:45.530Z,4.80
2018-09-14T04:55:13.834Z,2.10
2018-09-14T04:57:42.121Z,2.83
2018-09-14T05:00:10.447Z,3.27
2018-09-14T05:02:39.634Z,2.50
2018-09-14T05:05:07.998Z,3.57
2018-09-14T05:07:36.319Z,2.43
2018-09-14T05:10:04.719Z,4.20
2018-09-14T05:12:33.033Z,1.93
2018-09-14T05:15:01.370Z,1.90
2018-09-14T05:17:29.690Z,2.23
2018-09-14T05:19:58.014Z,4.50
2018-09-14T05:22:26.403Z,3.15
2018-09-14T05:24:54.739Z,3.50
2018-09-14T05:27:23.066Z,1.90
2018-09-14T05:29:51.408Z,2.23
2018-09-14T05:32:19.741Z,2.13
2018-09-14T05:34:48.117Z,1.80
2018-09-14T05:37:16.469Z,5.67
2018-09-14T05:39:44.858Z,2.97
2018-09-14T05:42:13.262Z,2.00
2018-09-14T05:44:41.595Z,1.87
2018-09-14T05:47:09.955Z,2.83
2018-09-14T05:49:38.258Z,2.33
2018-09-14T05:52:06.583Z,3.00
2018-09-14T05:54:34.984Z,1.97
2018-09-14T05:57:03.223Z,2.30
2018-09-14T05:59:31.515Z,1.90
2018-09-14T06:01:59.970Z,2.90
2018-09-14T06:04:28.271Z,2.60
2018-09-14T06:06:56.557Z,1.77
2018-09-14T06:09:24.870Z,2.20
2018-09-14T06:11:53.175Z,3.50
2018-09-14T06:14:21.478Z,7.00
2018-09-14T06:16:49.784Z,2.20
2018-09-14T06:19:18.271Z,1.80
2018-09-14T06:21:46.584Z,1.40
2018-09-14T06:24:14.886Z,1.97
2018-09-14T06:26:43.194Z,1.50
2018-09-14T06:29:11.510Z,3.73
2018-09-14T06:31:39.838Z,2.63
2018-09-14T06:34:08.110Z,3.43
2018-09-14T06:36:36.402Z,2.33
2018-09-14T06:39:07.398Z,2.37
2018-09-14T06:41:35.726Z,7.03
2018-09-14T06:44:04.127Z,2.33
2018-09-14T06:46:32.456Z,2.43
2018-09-14T06:49:00.729Z,2.90
2018-09-14T06:51:29.137Z,3.52
2018-09-14T06:53:57.415Z,2.70
2018-09-14T06:56:25.706Z,2.10
2018-09-14T06:58:54.110Z,2.73
2018-09-14T07:01:22.426Z,2.80
2018-09-14T07:03:50.721Z,2.83
2018-09-14T07:06:19.056Z,1.90
2018-09-14T07:08:47.377Z,1.90
2018-09-14T07:11:16.051Z,3.13
2018-09-14T07:13:44.359Z,2.90
2018-09-14T07:16:12.690Z,14.40
2018-09-14T07:18:41.026Z,17.30
2018-09-14T07:21:09.467Z,13.93
2018-09-14T07:23:37.769Z,15.87
2018-09-14T07:26:06.087Z,20.60
2018-09-14T07:28:34.403Z,14.70
2018-09-14T07:31:02.762Z,19.33
2018-09-14T07:33:31.067Z,11.83
2018-09-14T07:35:59.423Z,9.23
2018-09-14T07:38:27.702Z,8.48
2018-09-14T07:40:56.070Z,5.33
2018-09-14T07:43:24.419Z,4.47
2018-09-14T07:45:52.730Z,3.70
2018-09-14T07:48:21.391Z,2.77
2018-09-14T07:50:49.650Z,3.03
2018-09-14T07:53:17.942Z,3.73
2018-09-14T07:55:46.274Z,3.30
2018-09-14T07:58:14.591Z,2.83
2018-09-14T08:00:42.973Z,3.47
2018-09-14T08:03:11.299Z,4.20
2018-09-14T08:05:39.647Z,4.03
2018-09-14T08:08:07.948Z,5.57
2018-09-14T08:10:36.427Z,8.13
2018-09-14T08:13:04.781Z,5.17
2018-09-14T08:15:33.054Z,2.43
2018-09-14T08:18:01.370Z,2.33
2018-09-14T08:20:29.847Z,3.45
2018-09-14T08:22:58.235Z,3.57
2018-09-14T08:25:26.538Z,3.53
2018-09-14T08:27:54.867Z,2.33
2018-09-14T08:30:23.506Z,5.83
2018-09-14T08:32:51.789Z,3.33
2018-09-14T08:35:20.095Z,3.53
2018-09-14T08:37:48.505Z,3.53
2018-09-14T08:40:16.857Z,2.77
2018-09-14T08:42:45.183Z,1.73
2018-09-14T08:45:13.467Z,2.73
2018-09-14T08:47:41.836Z,7.70
2018-09-14T08:50:10.191Z,6.33
2018-09-14T08:52:38.514Z,7.57
2018-09-14T08:55:06.826Z,6.17
2018-09-14T08:57:35.138Z,5.20
2018-09-14T09:00:03.438Z,3.97
2018-09-14T09:02:31.806Z,10.83
2018-09-14T09:05:00.181Z,5.80
2018-09-14T09:07:28.518Z,9.03
2018-09-14T09:09:56.849Z,4.50
2018-09-14T09:12:26.154Z,7.83
2018-09-14T09:14:54.469Z,6.87
2018-09-14T09:17:22.775Z,9.50
2018-09-14T09:19:51.105Z,5.60
2018-09-14T09:22:19.422Z,8.17
2018-09-14T09:24:47.715Z,11.77
2018-09-14T09:27:16.015Z,8.23
2018-09-14T09:29:44.318Z,9.48
2018-09-14T09:32:12.622Z,5.83
2018-09-14T09:34:40.913Z,6.70
2018-09-14T09:37:09.235Z,7.10
2018-09-14T09:39:37.531Z,5.93
2018-09-14T09:42:05.862Z,7.87
2018-09-14T09:44:34.159Z,5.93
2018-09-14T09:47:02.557Z,8.30
2018-09-14T09:49:30.844Z,10.60
2018-09-14T09:51:59.210Z,7.47
2018-09-14T09:54:27.519Z,8.10
2018-09-14T09:56:55.841Z,6.87
2018-09-14T09:59:24.158Z,11.27
2018-09-14T10:01:57.706Z,8.67
2018-09-14T10:04:31.357Z,9.60
2018-09-14T10:06:59.690Z,8.07
2018-09-14T10:09:28.049Z,7.90
2018-09-14T10:11:56.398Z,11.50
2018-09-14T10:14:24.876Z,12.67
2018-09-14T10:16:53.231Z,9.20
2018-09-14T10:19:21.574Z,5.97
2018-09-14T10:21:49.973Z,7.83
2018-09-14T10:24:18.227Z,5.73
2018-09-14T10:26:46.559Z,6.00
2018-09-14T10:29:14.867Z,4.67
2018-09-14T10:31:43.167Z,5.00
2018-09-14T10:34:11.495Z,3.45
2018-09-14T10:36:39.884Z,4.40
2018-09-14T10:39:09.766Z,4.30
2018-09-14T10:41:38.100Z,4.23
2018-09-14T10:44:06.491Z,5.07
2018-09-14T10:46:34.805Z,2.83
2018-09-14T10:49:03.149Z,6.33
2018-09-14T10:51:31.607Z,3.73
2018-09-14T10:53:59.983Z,6.53
2018-09-14T10:56:28.298Z,5.80
2018-09-14T10:58:56.615Z,7.37
2018-09-14T11:01:24.906Z,6.07
2018-09-14T11:03:53.237Z,5.63
2018-09-14T11:06:21.566Z,7.87
2018-09-14T11:08:49.884Z,10.27
2018-09-14T11:11:18.174Z,15.05
2018-09-14T11:13:46.590Z,12.93
2018-09-14T11:16:14.857Z,15.80
2018-09-14T11:18:43.281Z,16.87
2018-09-14T11:21:11.453Z,15.28
2018-09-14T11:23:39.786Z,12.93
2018-09-14T11:26:08.119Z,16.87
2018-09-14T11:28:36.622Z,10.03
2018-09-14T11:31:05.463Z,10.33
2018-09-14T11:33:33.771Z,9.37
2018-09-14T11:36:02.062Z,9.67
2018-09-14T11:38:30.535Z,8.13
2018-09-14T11:40:58.778Z,12.70
2018-09-14T11:43:27.236Z,11.67
2018-09-14T11:45:55.579Z,15.90
2018-09-14T11:48:23.862Z,10.53
2018-09-14T11:50:52.183Z,12.83
2018-09-14T11:53:20.539Z,12.67
2018-09-14T11:55:48.841Z,17.40
2018-09-14T11:58:17.159Z,9.40
2018-09-14T12:00:45.553Z,10.30
2018-09-14T12:03:13.898Z,15.23
2018-09-14T12:05:42.209Z,22.33
2018-09-14T12:08:10.583Z,23.23
2018-09-14T12:10:38.875Z,17.70
2018-09-14T12:13:07.167Z,18.27
2018-09-14T12:15:35.470Z,17.97
2018-09-14T12:18:03.743Z,21.20
2018-09-14T12:20:32.138Z,9.90
2018-09-14T12:23:00.475Z,24.37
2018-09-14T12:25:28.796Z,15.93
2018-09-14T12:28:00.134Z,18.27
2018-09-14T12:30:28.457Z,13.93
2018-09-14T12:32:56.786Z,8.50
2018-09-14T12:35:25.107Z,19.37
2018-09-14T12:37:53.434Z,9.07
2018-09-14T12:40:21.795Z,9.73
2018-09-14T12:42:50.070Z,10.53
2018-09-14T12:45:18.407Z,14.93
2018-09-14T12:47:46.767Z,17.05
2018-09-14T12:50:15.071Z,9.87
2018-09-14T12:52:43.378Z,13.53
2018-09-14T12:55:11.707Z,14.03
2018-09-14T12:57:40.070Z,14.03
2018-09-14T13:00:08.791Z,9.40
2018-09-14T13:02:37.154Z,11.43
2018-09-14T13:05:05.618Z,8.37
2018-09-14T13:07:33.911Z,13.13
2018-09-14T13:10:02.211Z,10.77
2018-09-14T13:12:30.486Z,16.33
2018-09-14T13:14:58.905Z,10.43
2018-09-14T13:17:27.114Z,10.70
2018-09-14T13:19:55.566Z,12.93
2018-09-14T13:22:23.975Z,18.80
2018-09-14T13:24:52.371Z,9.90
2018-09-14T13:27:20.675Z,7.53
2018-09-14T13:29:49.002Z,7.97
2018-09-14T13:32:17.358Z,11.47
2018-09-14T13:34:45.606Z,8.10
2018-09-14T13:37:14.434Z,7.80
2018-09-14T13:39:42.731Z,11.30
2018-09-14T13:42:11.018Z,11.40
2018-09-14T13:44:39.418Z,7.40
2018-09-14T13:47:07.759Z,13.80
2018-09-14T13:49:36.051Z,17.53
2018-09-14T13:52:04.373Z,11.13
2018-09-14T13:54:32.695Z,7.10
2018-09-14T13:57:01.006Z,11.90
2018-09-14T13:59:29.303Z,8.67
2018-09-14T14:01:57.638Z,6.40
2018-09-14T14:04:26.032Z,14.90
2018-09-14T14:06:54.350Z,8.48
2018-09-14T14:09:22.695Z,11.47
2018-09-14T14:11:50.988Z,14.38
2018-09-14T14:14:19.293Z,8.60
2018-09-14T14:16:47.644Z,18.53
2018-09-14T14:19:16.807Z,19.20
2018-09-14T14:21:45.126Z,22.90
2018-09-14T14:24:13.418Z,14.23
2018-09-14T14:26:41.728Z,34.57
2018-09-14T14:29:10.046Z,23.40
2018-09-14T14:31:38.351Z,20.33
2018-09-14T14:34:06.694Z,21.63
2018-09-14T14:36:35.024Z,16.17
2018-09-14T14:39:03.422Z,16.90
2018-09-14T14:41:31.900Z,19.23
2018-09-14T14:44:00.158Z,21.87
2018-09-14T14:46:28.486Z,15.17
2018-09-14T14:48:56.785Z,14.97
2018-09-14T14:51:25.091Z,11.10
2018-09-14T14:53:53.379Z,15.47
2018-09-14T14:56:21.691Z,14.60
2018-09-14T14:58:50.010Z,10.10
2018-09-14T15:01:18.342Z,9.50
2018-09-14T15:03:46.658Z,8.10
2018-09-14T15:06:15.082Z,7.60
2018-09-14T15:08:43.438Z,8.40
2018-09-14T15:11:11.825Z,9.23
2018-09-14T15:13:40.211Z,7.90
2018-09-14T15:16:08.510Z,11.20
2018-09-14T15:18:36.814Z,11.70
2018-09-14T15:21:05.155Z,12.40
2018-09-14T15:23:33.508Z,4.93
2018-09-14T15:26:01.862Z,6.47
2018-09-14T15:28:30.143Z,5.63
2018-09-14T15:30:58.502Z,9.88
2018-09-14T15:33:26.809Z,6.43
2018-09-14T15:35:55.462Z,7.17
2018-09-14T15:38:23.781Z,13.17
2018-09-14T15:43:37.510Z,7.83
2018-09-14T15:46:05.858Z,8.20
2018-09-14T15:48:34.154Z,6.97
2018-09-14T15:51:02.522Z,7.53
2018-09-14T15:53:30.822Z,6.30
2018-09-14T15:55:59.254Z,4.70
2018-09-14T15:58:27.607Z,5.30
2018-09-14T16:00:55.993Z,8.33
2018-09-14T16:03:24.326Z,7.40
2018-09-14T16:05:52.810Z,7.03
2018-09-14T16:08:21.134Z,6.33
2018-09-14T16:10:49.499Z,4.07
2018-09-14T16:13:17.818Z,5.73
2018-09-14T16:15:46.187Z,3.73
2018-09-14T16:18:14.494Z,5.97
2018-09-14T16:20:42.946Z,5.40
2018-09-14T16:23:11.244Z,4.60
2018-09-14T16:25:39.584Z,5.42
2018-09-14T16:28:07.878Z,4.60
2018-09-14T16:30:36.263Z,7.00
2018-09-14T16:33:04.635Z,6.30
2018-09-14T16:35:32.919Z,3.73
2018-09-14T16:38:01.249Z,3.73
2018-09-14T16:40:29.571Z,8.20
2018-09-14T16:42:57.969Z,4.63
2018-09-14T16:45:27.059Z,3.87
2018-09-14T16:47:55.389Z,7.77
2018-09-14T16:50:23.707Z,4.80
2018-09-14T16:52:52.039Z,4.00
2018-09-14T16:55:20.386Z,5.00
2018-09-14T16:57:48.723Z,2.67
2018-09-14T17:00:17.018Z,6.63
2018-09-14T17:02:45.448Z,3.57
2018-09-14T17:05:13.702Z,3.73
2018-09-14T17:07:42.051Z,4.60
2018-09-14T17:10:10.404Z,4.63
2018-09-14T17:12:38.747Z,3.90
2018-09-14T17:15:07.532Z,3.10
2018-09-14T17:17:35.986Z,5.87
2018-09-14T17:20:04.453Z,2.33
2018-09-14T17:22:32.754Z,4.80
2018-09-14T17:25:01.092Z,8.13
2018-09-14T17:27:29.460Z,5.77
2018-09-14T17:29:57.718Z,5.20
2018-09-14T17:32:26.042Z,2.83
2018-09-14T17:34:54.373Z,3.57
2018-09-14T17:37:22.729Z,4.07
2018-09-14T17:39:51.075Z,3.27
2018-09-14T17:42:19.386Z,3.97
2018-09-14T17:44:47.691Z,4.90
2018-09-14T17:47:16.023Z,6.83
2018-09-14T17:49:44.375Z,2.20
2018-09-14T17:52:12.742Z,6.23
2018-09-14T17:54:41.087Z,3.43
2018-09-14T17:57:09.422Z,4.30
2018-09-14T17:59:37.726Z,4.63
2018-09-14T18:02:06.098Z,4.00
2018-09-14T18:04:34.647Z,4.90
2018-09-14T18:07:02.990Z,3.73
2018-09-14T18:09:32.122Z,3.60
2018-09-14T18:12:00.487Z,2.90
2018-09-14T18:14:28.789Z,6.40
2018-09-14T18:16:57.310Z,5.27
2018-09-14T18:19:25.647Z,3.73
2018-09-14T18:21:54.010Z,4.33
2018-09-14T18:24:23.062Z,3.43
2018-09-14T18:26:51.410Z,5.77
2018-09-14T18:29:19.816Z,2.27
2018-09-14T18:31:48.134Z,2.80
2018-09-14T18:34:16.527Z,5.55
2018-09-14T18:36:44.851Z,4.50
2018-09-14T18:39:13.478Z,3.20
2018-09-14T18:41:41.991Z,2.27
2018-09-14T18:44:10.421Z,3.80
2018-09-14T18:46:38.899Z,3.17
2018-09-14T18:49:07.720Z,25.90
2018-09-14T18:51:36.049Z,57.87
2018-09-14T18:54:04.515Z,50.63
2018-09-14T18:56:32.861Z,49.90
2018-09-14T18:59:01.334Z,44.23
2018-09-14T19:01:29.638Z,30.90
2018-09-14T19:03:57.985Z,22.73
2018-09-14T19:06:26.317Z,19.87
2018-09-14T19:08:54.630Z,13.67
2018-09-14T19:11:22.950Z,14.07
2018-09-14T19:13:51.259Z,16.30
2018-09-14T19:16:19.655Z,11.53
2018-09-14T19:18:48.015Z,13.10
2018-09-14T19:21:16.417Z,11.70
2018-09-14T19:23:44.768Z,11.57
2018-09-14T19:26:13.054Z,8.50
2018-09-14T19:28:41.394Z,10.50
2018-09-14T19:31:09.717Z,9.93
2018-09-14T19:33:38.566Z,8.33
2018-09-14T19:36:06.874Z,8.63
2018-09-14T19:38:35.321Z,8.27
2018-09-14T19:41:03.524Z,8.00
2018-09-14T19:43:31.846Z,5.90
2018-09-14T19:46:00.229Z,7.17
2018-09-14T19:48:28.555Z,8.80
2018-09-14T19:50:56.846Z,7.80
2018-09-14T19:53:25.162Z,6.90
2018-09-14T19:55:53.489Z,6.83
2018-09-14T19:58:21.799Z,8.63
2018-09-14T20:00:50.104Z,7.80
2018-09-14T20:03:18.450Z,6.10
2018-09-14T20:05:46.786Z,8.20
2018-09-14T20:08:15.110Z,6.67
2018-09-14T20:10:43.440Z,5.43
2018-09-14T20:13:11.754Z,9.63
2018-09-14T20:15:40.031Z,6.70
2018-09-14T20:18:08.701Z,7.27
2018-09-14T20:20:37.074Z,5.70
2018-09-14T20:23:05.365Z,4.73
2018-09-14T20:25:33.680Z,9.20
2018-09-14T20:28:02.009Z,4.83
2018-09-14T20:30:30.410Z,4.40
2018-09-14T20:32:58.683Z,6.50
2018-09-14T20:35:27.058Z,4.80
2018-09-14T20:37:55.378Z,6.07
2018-09-14T20:40:23.694Z,5.43
2018-09-14T20:42:52.014Z,6.00
2018-09-14T20:45:20.333Z,4.90
2018-09-14T20:47:48.646Z,5.80
2018-09-14T20:50:16.991Z,4.87
2018-09-14T20:52:45.326Z,4.27
2018-09-14T20:55:13.647Z,4.77
2018-09-14T20:57:41.955Z,8.33
2018-09-14T21:00:10.310Z,4.03
2018-09-14T21:02:38.617Z,3.73
2018-09-14T21:05:07.124Z,3.73
2018-09-14T21:07:35.459Z,3.93
2018-09-14T21:10:03.799Z,3.13
2018-09-14T21:12:32.127Z,2.87
2018-09-14T21:15:00.504Z,3.50
2018-09-14T21:17:28.814Z,3.03
2018-09-14T21:19:57.106Z,3.60
2018-09-14T21:22:25.405Z,3.60
2018-09-14T21:24:53.726Z,5.23
2018-09-14T21:27:22.052Z,4.63
2018-09-14T21:29:50.714Z,4.67
2018-09-14T21:32:19.079Z,5.70
2018-09-14T21:34:47.482Z,4.53
2018-09-14T21:37:16.214Z,2.97
2018-09-14T21:39:44.538Z,2.43
2018-09-14T21:42:12.849Z,5.00
2018-09-14T21:44:47.634Z,3.13
2018-09-14T21:47:16.791Z,3.10
2018-09-14T21:49:45.106Z,5.80
2018-09-14T21:52:13.478Z,4.40
2018-09-14T21:54:41.818Z,3.57
2018-09-14T21:57:10.124Z,2.60
2018-09-14T21:59:38.585Z,5.13
2018-09-14T22:02:06.918Z,3.67
2018-09-14T22:04:35.260Z,4.23
2018-09-14T22:07:03.679Z,4.70
2018-09-14T22:09:32.002Z,3.03
2018-09-14T22:12:00.311Z,3.97
2018-09-14T22:14:28.714Z,2.57
2018-09-14T22:16:57.030Z,3.17
2018-09-14T22:19:25.367Z,2.35
2018-09-14T22:21:53.688Z,3.37
2018-09-14T22:24:21.982Z,2.50
2018-09-14T22:26:50.271Z,3.13
2018-09-14T22:29:18.875Z,3.30
2018-09-14T22:31:47.195Z,2.50
2018-09-14T22:34:15.514Z,3.90
2018-09-14T22:36:43.890Z,2.10
2018-09-14T22:39:13.439Z,3.57
2018-09-14T22:41:41.802Z,3.53
2018-09-14T22:44:10.302Z,3.10
2018-09-14T22:46:38.718Z,3.43
2018-09-14T22:49:07.039Z,4.20
2018-09-14T22:51:35.357Z,3.02
2018-09-14T22:54:03.662Z,4.40
2018-09-14T22:56:32.034Z,4.30
2018-09-14T22:59:00.383Z,5.43
2018-09-14T23:01:28.682Z,2.13
2018-09-14T23:03:57.002Z,2.53
2018-09-14T23:06:25.309Z,2.30
2018-09-14T23:08:53.650Z,4.80
2018-09-14T23:11:21.982Z,2.77
2018-09-14T23:13:50.393Z,2.40
2018-09-14T23:16:18.698Z,4.43
2018-09-14T23:18:47.039Z,4.53
2018-09-14T23:21:15.346Z,2.63
2018-09-14T23:23:43.706Z,3.00
2018-09-14T23:26:14.195Z,3.43
2018-09-14T23:28:42.686Z,4.10
2018-09-14T23:31:11.094Z,2.60
2018-09-14T23:33:39.423Z,2.53
2018-09-14T23:36:07.842Z,2.67
2018-09-14T23:38:36.229Z,3.12
2018-09-14T23:41:04.565Z,3.30
2018-09-14T23:43:32.886Z,2.97
2018-09-14T23:46:01.221Z,4.03
2018-09-14T23:48:29.565Z,4.53
2018-09-14T23:50:57.870Z,3.00
2018-09-14T23:53:26.170Z,3.50
2018-09-14T23:55:54.562Z,3.93
2018-09-14T23:58:22.870Z,3.60
